Bill Hillary Clinton National Airport/Adams Field


Codes: KLIT/LIT
Name: Bill Hillary Clinton National Airport/Adams Field
City: Little Rock
Country: United States
Elevation: 262 ft.
Wikipedia:

Photos at Bill Hillary Clinton National Airport/Adams Field


   Photos courtesy of SpottingLog. You can add your own sightings and photos by signing up for a free trial today.



No photos found.

Weather at Bill Hillary Clinton National Airport/Adams Field


Time (UTC)DescriptionTempratureWindCloud coverageVisibilityPressureHumidity
15-Apr-2024 18:00Overcast Clouds23°C9 mph, S100%10000m1015hPa73%
15-Apr-2024 21:00Overcast Clouds25°C9 mph, S100%10000m1014hPa61%
16-Apr-2024 00:00Overcast Clouds24°C4 mph, S100%10000m1012hPa70%
16-Apr-2024 03:00Light Rain21°C7 mph, SE100%10000m1013hPa85%
16-Apr-2024 06:00Light Rain19°C9 mph, SW100%10000m1013hPa92%
16-Apr-2024 09:00Light Rain20°C13 mph, S100%10000m1010hPa88%
16-Apr-2024 12:00Overcast Clouds19°C9 mph, SW100%10000m1012hPa86%
16-Apr-2024 15:00Broken Clouds23°C16 mph, S77%10000m1011hPa69%
16-Apr-2024 18:00Broken Clouds28°C18 mph, S71%10000m1009hPa53%
16-Apr-2024 21:00Light Rain25°C18 mph, SW96%10000m1008hPa73%
17-Apr-2024 00:00Light Rain22°C11 mph, SW98%10000m1008hPa90%
17-Apr-2024 03:00Light Rain22°C11 mph, SW100%10000m1010hPa90%
17-Apr-2024 06:00Light Rain21°C16 mph, SW100%10000m1009hPa91%
17-Apr-2024 09:00Overcast Clouds20°C13 mph, SW100%10000m1009hPa94%
17-Apr-2024 12:00Overcast Clouds20°C11 mph, SW100%10000m1011hPa93%
17-Apr-2024 15:00Light Rain21°C9 mph, SW100%10000m1012hPa91%
17-Apr-2024 18:00Overcast Clouds27°C11 mph, SW100%10000m1012hPa63%
17-Apr-2024 21:00Overcast Clouds29°C11 mph, SW99%10000m1010hPa50%
18-Apr-2024 00:00Overcast Clouds25°C9 mph, SW99%10000m1012hPa73%
18-Apr-2024 03:00Overcast Clouds22°C2 mph, SW100%10000m1014hPa89%
18-Apr-2024 06:00Overcast Clouds21°C2 mph, W100%10000m1014hPa90%
18-Apr-2024 09:00Overcast Clouds19°C4 mph, NE96%10000m1014hPa93%
18-Apr-2024 12:00Broken Clouds18°C4 mph, NE62%10000m1015hPa83%
18-Apr-2024 15:00Overcast Clouds22°C4 mph, SE100%10000m1015hPa86%
18-Apr-2024 18:00Broken Clouds29°C9 mph, S76%10000m1013hPa55%
18-Apr-2024 21:00Light Rain28°C9 mph, S78%10000m1010hPa61%
19-Apr-2024 00:00Broken Clouds26°C13 mph, S74%10000m1009hPa73%
19-Apr-2024 03:00Moderate Rain21°C7 mph, SW36%10000m1012hPa95%
19-Apr-2024 06:00Moderate Rain21°C9 mph, SW68%10000m1013hPa96%
19-Apr-2024 09:00Overcast Clouds20°C7 mph, SW100%10000m1013hPa98%
19-Apr-2024 12:00Light Rain15°C9 mph, N100%10000m1016hPa94%
19-Apr-2024 15:00Light Rain14°C11 mph, N100%10000m1019hPa91%
19-Apr-2024 18:00Light Rain15°C11 mph, NE100%10000m1020hPa84%
19-Apr-2024 21:00Overcast Clouds16°C9 mph, NE100%10000m1019hPa76%
20-Apr-2024 00:00Overcast Clouds16°C7 mph, NE100%10000m1019hPa78%
20-Apr-2024 03:00Overcast Clouds16°C7 mph, NE100%10000m1020hPa75%
20-Apr-2024 06:00Overcast Clouds16°C9 mph, NE100%10000m1020hPa74%
20-Apr-2024 09:00Overcast Clouds13°C11 mph, NE100%10000m1022hPa62%
20-Apr-2024 12:00Overcast Clouds12°C11 mph, NE100%10000m1023hPa57%
20-Apr-2024 15:00Overcast Clouds12°C11 mph, NE100%10000m1024hPa60%